Law, Texas
Current Conditions -  °F | °C
As of 9:53 AM on Saturday 25 Oct 2014 (Local Time) from KCLL Reporting Station
Clear Clear  
Wind Chill: 70°   Ceiling: Unl
Heat Index: 70°   Visibility: 10mi
Dew Point: 61°   Wind: 3mph
Humidity: 73%   Direction: 240°WSW
Pressure: 30.19"   Gusts: NA
Location:  30.6361°N, 96.3666°W
Report Text: KCLL 251453Z 24003KT 10SM CLR 21/16 A3019 RMK AO2 SLP221 T02110161 53014
Loading
Personal Weather Stations






























Interactive Weather Map
Tropical Storm Tracking
New forecast layout! Learn more

10-Day Weather Forecast

Advertisements
Track Severe Weather on mobile